Makkovik, Canada
Current Conditions -  °F | °C
As of 8:00 AM on Monday 20 Oct 2014 (Local Time) from CWCA Reporting Station
Light Rain Light Rain  
Wind Chill: 36°   Ceiling: 600
Heat Index: 41°   Visibility: 2mi
Dew Point: 41°   Wind: 7mph
Humidity: 100%   Direction: 100°E
Pressure: 29.62"   Gusts: NA
Location:  55.08°N, 59.18°W
Report Text: CWCA 201100Z 10006KT 2SM -DZRA BR OVC006 05/05 A2962 RMK ST8 SLP030
Loading
Personal Weather Stations






























Interactive Weather Map
Tropical Storm Tracking
New forecast layout! Learn more

10-Day Weather Forecast

Advertisements
Track Severe Weather on mobile